<?xml version="1.0" encoding="UTF-8"?>
<gpx xmlns="http://www.topografix.com/GPX/1/1" xmlns:xsi="http://www.w3.org/2001/XMLSchema-instance" version="1.1" xsi:schemaLocation="http://www.topografix.com/GPX/1/1 http://www.topografix.com/GPX/1/1/gpx.xsd">
  <metadata>
    <name>Cal Tri Castaic Lake - Sprint SwimBike</name>
  </metadata>
  <trk>
    <name>Cal Tri Castaic Lake - Sprint SwimBike</name>
    <trkseg>
      <trkpt lat="34.499742" lon="-118.613777">
        <ele>354.341389</ele>
        <time>2024-06-15T08:07:19.000Z</time>
      </trkpt>
      <trkpt lat="34.499768" lon="-118.613784">
        <ele>354.341391</ele>
        <time>2024-06-15T08:07:19.000Z</time>
      </trkpt>
      <trkpt lat="34.499902" lon="-118.613812">
        <ele>354.341377</ele>
        <time>2024-06-15T08:07:21.000Z</time>
      </trkpt>
      <trkpt lat="34.499976" lon="-118.613838">
        <ele>354.341388</ele>
        <time>2024-06-15T08:07:22.000Z</time>
      </trkpt>
      <trkpt lat="34.500123" lon="-118.61396">
        <ele>354.341388</ele>
        <time>2024-06-15T08:07:24.000Z</time>
      </trkpt>
      <trkpt lat="34.500228" lon="-118.614222">
        <ele>354.341386</ele>
        <time>2024-06-15T08:07:27.000Z</time>
      </trkpt>
      <trkpt lat="34.500365" lon="-118.614799">
        <ele>354.68094</ele>
        <time>2024-06-15T08:07:33.000Z</time>
      </trkpt>
      <trkpt lat="34.500408" lon="-118.615218">
        <ele>355.166379</ele>
        <time>2024-06-15T08:07:37.000Z</time>
      </trkpt>
      <trkpt lat="34.500402" lon="-118.615384">
        <ele>355.352338</ele>
        <time>2024-06-15T08:07:39.000Z</time>
      </trkpt>
      <trkpt lat="34.50041" lon="-118.615619">
        <ele>355.610929</ele>
        <time>2024-06-15T08:07:41.000Z</time>
      </trkpt>
      <trkpt lat="34.500426" lon="-118.61595">
        <ele>356.002185</ele>
        <time>2024-06-15T08:07:44.000Z</time>
      </trkpt>
      <trkpt lat="34.500435" lon="-118.616087">
        <ele>356.142877</ele>
        <time>2024-06-15T08:07:45.000Z</time>
      </trkpt>
      <trkpt lat="34.50045" lon="-118.61624">
        <ele>356.325125</ele>
        <time>2024-06-15T08:07:46.000Z</time>
      </trkpt>
      <trkpt lat="34.500008" lon="-118.616245">
        <ele>356.751488</ele>
        <time>2024-06-15T08:07:51.000Z</time>
      </trkpt>
      <trkpt lat="34.499355" lon="-118.616294">
        <ele>356.282511</ele>
        <time>2024-06-15T08:07:58.000Z</time>
      </trkpt>
      <trkpt lat="34.497839" lon="-118.616408">
        <ele>355.100559</ele>
        <time>2024-06-15T08:08:15.000Z</time>
      </trkpt>
      <trkpt lat="34.497544" lon="-118.616433">
        <ele>354.80947</ele>
        <time>2024-06-15T08:08:18.000Z</time>
      </trkpt>
      <trkpt lat="34.497438" lon="-118.616379">
        <ele>354.69825</ele>
        <time>2024-06-15T08:08:19.000Z</time>
      </trkpt>
      <trkpt lat="34.497335" lon="-118.616396">
        <ele>354.593098</ele>
        <time>2024-06-15T08:08:20.000Z</time>
      </trkpt>
      <trkpt lat="34.497237" lon="-118.616396">
        <ele>354.509222</ele>
        <time>2024-06-15T08:08:21.000Z</time>
      </trkpt>
      <trkpt lat="34.496855" lon="-118.616436">
        <ele>354.129174</ele>
        <time>2024-06-15T08:08:25.000Z</time>
      </trkpt>
      <trkpt lat="34.496769" lon="-118.616443">
        <ele>354.054863</ele>
        <time>2024-06-15T08:08:26.000Z</time>
      </trkpt>
      <trkpt lat="34.496616" lon="-118.616456">
        <ele>353.899611</ele>
        <time>2024-06-15T08:08:28.000Z</time>
      </trkpt>
      <trkpt lat="34.496374" lon="-118.616472">
        <ele>353.679154</ele>
        <time>2024-06-15T08:08:31.000Z</time>
      </trkpt>
      <trkpt lat="34.495948" lon="-118.616507">
        <ele>353.269118</ele>
        <time>2024-06-15T08:08:36.000Z</time>
      </trkpt>
      <trkpt lat="34.495721" lon="-118.616515">
        <ele>353.044048</ele>
        <time>2024-06-15T08:08:39.000Z</time>
      </trkpt>
      <trkpt lat="34.495472" lon="-118.616534">
        <ele>352.809423</ele>
        <time>2024-06-15T08:08:42.000Z</time>
      </trkpt>
      <trkpt lat="34.495412" lon="-118.616547">
        <ele>352.76364</ele>
        <time>2024-06-15T08:08:43.000Z</time>
      </trkpt>
      <trkpt lat="34.495023" lon="-118.616571">
        <ele>352.393633</ele>
        <time>2024-06-15T08:08:47.000Z</time>
      </trkpt>
      <trkpt lat="34.494984" lon="-118.616579">
        <ele>352.35168</ele>
        <time>2024-06-15T08:08:47.000Z</time>
      </trkpt>
      <trkpt lat="34.494418" lon="-118.616625">
        <ele>351.86204</ele>
        <time>2024-06-15T08:08:53.000Z</time>
      </trkpt>
      <trkpt lat="34.493849" lon="-118.616675">
        <ele>351.43865</ele>
        <time>2024-06-15T08:08:59.000Z</time>
      </trkpt>
      <trkpt lat="34.492802" lon="-118.616752">
        <ele>350.696634</ele>
        <time>2024-06-15T08:09:11.000Z</time>
      </trkpt>
      <trkpt lat="34.492678" lon="-118.616769">
        <ele>350.648726</ele>
        <time>2024-06-15T08:09:12.000Z</time>
      </trkpt>
      <trkpt lat="34.492309" lon="-118.616779">
        <ele>350.508786</ele>
        <time>2024-06-15T08:09:16.000Z</time>
      </trkpt>
      <trkpt lat="34.491888" lon="-118.616846">
        <ele>350.352148</ele>
        <time>2024-06-15T08:09:21.000Z</time>
      </trkpt>
      <trkpt lat="34.491547" lon="-118.616945">
        <ele>350.222202</ele>
        <time>2024-06-15T08:09:25.000Z</time>
      </trkpt>
      <trkpt lat="34.491527" lon="-118.616963">
        <ele>350.209315</ele>
        <time>2024-06-15T08:09:25.000Z</time>
      </trkpt>
      <trkpt lat="34.491353" lon="-118.617045">
        <ele>350.141149</ele>
        <time>2024-06-15T08:09:27.000Z</time>
      </trkpt>
      <trkpt lat="34.490877" lon="-118.61736">
        <ele>349.754068</ele>
        <time>2024-06-15T08:09:33.000Z</time>
      </trkpt>
      <trkpt lat="34.490604" lon="-118.617606">
        <ele>349.437623</ele>
        <time>2024-06-15T08:09:37.000Z</time>
      </trkpt>
      <trkpt lat="34.490344" lon="-118.617404">
        <ele>349.15036</ele>
        <time>2024-06-15T08:09:40.000Z</time>
      </trkpt>
      <trkpt lat="34.49027" lon="-118.617338">
        <ele>349.062352</ele>
        <time>2024-06-15T08:09:41.000Z</time>
      </trkpt>
      <trkpt lat="34.490102" lon="-118.617206">
        <ele>348.880703</ele>
        <time>2024-06-15T08:09:43.000Z</time>
      </trkpt>
      <trkpt lat="34.490025" lon="-118.617133">
        <ele>348.790817</ele>
        <time>2024-06-15T08:09:44.000Z</time>
      </trkpt>
      <trkpt lat="34.489894" lon="-118.617063">
        <ele>348.66411</ele>
        <time>2024-06-15T08:09:46.000Z</time>
      </trkpt>
      <trkpt lat="34.489471" lon="-118.61685">
        <ele>348.086652</ele>
        <time>2024-06-15T08:09:51.000Z</time>
      </trkpt>
      <trkpt lat="34.489193" lon="-118.616768">
        <ele>347.647757</ele>
        <time>2024-06-15T08:09:54.000Z</time>
      </trkpt>
      <trkpt lat="34.489083" lon="-118.61673">
        <ele>347.454127</ele>
        <time>2024-06-15T08:09:55.000Z</time>
      </trkpt>
      <trkpt lat="34.488986" lon="-118.616689">
        <ele>347.29915</ele>
        <time>2024-06-15T08:09:56.000Z</time>
      </trkpt>
      <trkpt lat="34.48806" lon="-118.616411">
        <ele>345.732042</ele>
        <time>2024-06-15T08:10:07.000Z</time>
      </trkpt>
      <trkpt lat="34.487933" lon="-118.616371">
        <ele>345.522859</ele>
        <time>2024-06-15T08:10:08.000Z</time>
      </trkpt>
      <trkpt lat="34.486563" lon="-118.615926">
        <ele>344.330503</ele>
        <time>2024-06-15T08:10:24.000Z</time>
      </trkpt>
      <trkpt lat="34.485923" lon="-118.615757">
        <ele>343.849918</ele>
        <time>2024-06-15T08:10:31.000Z</time>
      </trkpt>
      <trkpt lat="34.48541" lon="-118.615577">
        <ele>343.505962</ele>
        <time>2024-06-15T08:10:37.000Z</time>
      </trkpt>
      <trkpt lat="34.484088" lon="-118.614961">
        <ele>342.335795</ele>
        <time>2024-06-15T08:10:53.000Z</time>
      </trkpt>
      <trkpt lat="34.48349" lon="-118.614717">
        <ele>341.495489</ele>
        <time>2024-06-15T08:11:00.000Z</time>
      </trkpt>
      <trkpt lat="34.482907" lon="-118.614529">
        <ele>340.698577</ele>
        <time>2024-06-15T08:11:07.000Z</time>
      </trkpt>
      <trkpt lat="34.482061" lon="-118.614288">
        <ele>339.776027</ele>
        <time>2024-06-15T08:11:17.000Z</time>
      </trkpt>
      <trkpt lat="34.481921" lon="-118.614215">
        <ele>339.632354</ele>
        <time>2024-06-15T08:11:19.000Z</time>
      </trkpt>
      <trkpt lat="34.481848" lon="-118.614048">
        <ele>339.472073</ele>
        <time>2024-06-15T08:11:21.000Z</time>
      </trkpt>
      <trkpt lat="34.481836" lon="-118.61387">
        <ele>339.314749</ele>
        <time>2024-06-15T08:11:23.000Z</time>
      </trkpt>
      <trkpt lat="34.48182" lon="-118.612249">
        <ele>338.99851</ele>
        <time>2024-06-15T08:11:38.000Z</time>
      </trkpt>
      <trkpt lat="34.481805" lon="-118.608086">
        <ele>341.846711</ele>
        <time>2024-06-15T08:12:16.000Z</time>
      </trkpt>
      <trkpt lat="34.48257" lon="-118.608098">
        <ele>342.66706</ele>
        <time>2024-06-15T08:12:25.000Z</time>
      </trkpt>
      <trkpt lat="34.483029" lon="-118.608075">
        <ele>343.17066</ele>
        <time>2024-06-15T08:12:30.000Z</time>
      </trkpt>
      <trkpt lat="34.483285" lon="-118.607951">
        <ele>343.523374</ele>
        <time>2024-06-15T08:12:33.000Z</time>
      </trkpt>
      <trkpt lat="34.483558" lon="-118.607724">
        <ele>343.95863</ele>
        <time>2024-06-15T08:12:37.000Z</time>
      </trkpt>
      <trkpt lat="34.483944" lon="-118.607007">
        <ele>344.887255</ele>
        <time>2024-06-15T08:12:45.000Z</time>
      </trkpt>
      <trkpt lat="34.484308" lon="-118.606553">
        <ele>345.586876</ele>
        <time>2024-06-15T08:12:51.000Z</time>
      </trkpt>
      <trkpt lat="34.485296" lon="-118.605522">
        <ele>346.303357</ele>
        <time>2024-06-15T08:13:05.000Z</time>
      </trkpt>
      <trkpt lat="34.485486" lon="-118.605339">
        <ele>346.436591</ele>
        <time>2024-06-15T08:13:08.000Z</time>
      </trkpt>
      <trkpt lat="34.485289" lon="-118.605511">
        <ele>346.569814</ele>
        <time>2024-06-15T08:13:11.000Z</time>
      </trkpt>
      <trkpt lat="34.484305" lon="-118.606554">
        <ele>345.433904</ele>
        <time>2024-06-15T08:13:26.000Z</time>
      </trkpt>
      <trkpt lat="34.483947" lon="-118.607013">
        <ele>344.960404</ele>
        <time>2024-06-15T08:13:32.000Z</time>
      </trkpt>
      <trkpt lat="34.483557" lon="-118.607718">
        <ele>344.205115</ele>
        <time>2024-06-15T08:13:40.000Z</time>
      </trkpt>
      <trkpt lat="34.483289" lon="-118.607952">
        <ele>343.851121</ele>
        <time>2024-06-15T08:13:44.000Z</time>
      </trkpt>
      <trkpt lat="34.483033" lon="-118.608069">
        <ele>343.556866</ele>
        <time>2024-06-15T08:13:47.000Z</time>
      </trkpt>
      <trkpt lat="34.48258" lon="-118.6081">
        <ele>343.055269</ele>
        <time>2024-06-15T08:13:52.000Z</time>
      </trkpt>
      <trkpt lat="34.481815" lon="-118.608087">
        <ele>343.347706</ele>
        <time>2024-06-15T08:14:01.000Z</time>
      </trkpt>
      <trkpt lat="34.478968" lon="-118.608083">
        <ele>345.167768</ele>
        <time>2024-06-15T08:14:33.000Z</time>
      </trkpt>
      <trkpt lat="34.478295" lon="-118.608122">
        <ele>345.297671</ele>
        <time>2024-06-15T08:14:40.000Z</time>
      </trkpt>
      <trkpt lat="34.478298" lon="-118.608123">
        <ele>345.297664</ele>
        <time>2024-06-15T08:14:40.000Z</time>
      </trkpt>
      <trkpt lat="34.477567" lon="-118.60821">
        <ele>345.425012</ele>
        <time>2024-06-15T08:14:48.000Z</time>
      </trkpt>
      <trkpt lat="34.477367" lon="-118.608258">
        <ele>345.462066</ele>
        <time>2024-06-15T08:14:50.000Z</time>
      </trkpt>
      <trkpt lat="34.477579" lon="-118.608199">
        <ele>345.493912</ele>
        <time>2024-06-15T08:14:52.000Z</time>
      </trkpt>
      <trkpt lat="34.478303" lon="-118.608126">
        <ele>345.22713</ele>
        <time>2024-06-15T08:15:00.000Z</time>
      </trkpt>
      <trkpt lat="34.478967" lon="-118.608092">
        <ele>344.9778</ele>
        <time>2024-06-15T08:15:07.000Z</time>
      </trkpt>
      <trkpt lat="34.48181" lon="-118.608086">
        <ele>342.265964</ele>
        <time>2024-06-15T08:15:39.000Z</time>
      </trkpt>
      <trkpt lat="34.481834" lon="-118.612246">
        <ele>339.032674</ele>
        <time>2024-06-15T08:16:17.000Z</time>
      </trkpt>
      <trkpt lat="34.481826" lon="-118.613855">
        <ele>339.081481</ele>
        <time>2024-06-15T08:16:32.000Z</time>
      </trkpt>
      <trkpt lat="34.481841" lon="-118.614058">
        <ele>339.287949</ele>
        <time>2024-06-15T08:16:34.000Z</time>
      </trkpt>
      <trkpt lat="34.481925" lon="-118.614214">
        <ele>339.498264</ele>
        <time>2024-06-15T08:16:36.000Z</time>
      </trkpt>
      <trkpt lat="34.482062" lon="-118.614296">
        <ele>339.686798</ele>
        <time>2024-06-15T08:16:38.000Z</time>
      </trkpt>
      <trkpt lat="34.482911" lon="-118.614527">
        <ele>340.827709</ele>
        <time>2024-06-15T08:16:48.000Z</time>
      </trkpt>
      <trkpt lat="34.483479" lon="-118.614717">
        <ele>341.579863</ele>
        <time>2024-06-15T08:16:55.000Z</time>
      </trkpt>
      <trkpt lat="34.484081" lon="-118.614969">
        <ele>342.265441</ele>
        <time>2024-06-15T08:17:02.000Z</time>
      </trkpt>
      <trkpt lat="34.485411" lon="-118.615585">
        <ele>343.536241</ele>
        <time>2024-06-15T08:17:18.000Z</time>
      </trkpt>
      <trkpt lat="34.485934" lon="-118.615765">
        <ele>343.777115</ele>
        <time>2024-06-15T08:17:24.000Z</time>
      </trkpt>
      <trkpt lat="34.486552" lon="-118.615939">
        <ele>344.061899</ele>
        <time>2024-06-15T08:17:31.000Z</time>
      </trkpt>
      <trkpt lat="34.487945" lon="-118.616359">
        <ele>344.425884</ele>
        <time>2024-06-15T08:17:47.000Z</time>
      </trkpt>
      <trkpt lat="34.488058" lon="-118.616402">
        <ele>344.454393</ele>
        <time>2024-06-15T08:17:48.000Z</time>
      </trkpt>
      <trkpt lat="34.488459" lon="-118.616527">
        <ele>344.545044</ele>
        <time>2024-06-15T08:17:53.000Z</time>
      </trkpt>
      <trkpt lat="34.488056" lon="-118.616402">
        <ele>344.468012</ele>
        <time>2024-06-15T08:17:58.000Z</time>
      </trkpt>
      <trkpt lat="34.487934" lon="-118.616374">
        <ele>344.437736</ele>
        <time>2024-06-15T08:17:59.000Z</time>
      </trkpt>
      <trkpt lat="34.486557" lon="-118.615939">
        <ele>344.071998</ele>
        <time>2024-06-15T08:18:15.000Z</time>
      </trkpt>
      <trkpt lat="34.485932" lon="-118.61577">
        <ele>343.775797</ele>
        <time>2024-06-15T08:18:22.000Z</time>
      </trkpt>
      <trkpt lat="34.485405" lon="-118.615577">
        <ele>343.525274</ele>
        <time>2024-06-15T08:18:28.000Z</time>
      </trkpt>
      <trkpt lat="34.484079" lon="-118.614958">
        <ele>342.264061</ele>
        <time>2024-06-15T08:18:44.000Z</time>
      </trkpt>
      <trkpt lat="34.483482" lon="-118.614726">
        <ele>341.554163</ele>
        <time>2024-06-15T08:18:51.000Z</time>
      </trkpt>
      <trkpt lat="34.482906" lon="-118.614512">
        <ele>340.82399</ele>
        <time>2024-06-15T08:18:58.000Z</time>
      </trkpt>
      <trkpt lat="34.482052" lon="-118.614301">
        <ele>339.711832</ele>
        <time>2024-06-15T08:19:08.000Z</time>
      </trkpt>
      <trkpt lat="34.481926" lon="-118.614221">
        <ele>339.528052</ele>
        <time>2024-06-15T08:19:10.000Z</time>
      </trkpt>
      <trkpt lat="34.481843" lon="-118.614058">
        <ele>339.323029</ele>
        <time>2024-06-15T08:19:12.000Z</time>
      </trkpt>
      <trkpt lat="34.481828" lon="-118.61386">
        <ele>339.121767</ele>
        <time>2024-06-15T08:19:14.000Z</time>
      </trkpt>
      <trkpt lat="34.481829" lon="-118.612243">
        <ele>339.000486</ele>
        <time>2024-06-15T08:19:29.000Z</time>
      </trkpt>
      <trkpt lat="34.481819" lon="-118.608083">
        <ele>341.821791</ele>
        <time>2024-06-15T08:20:07.000Z</time>
      </trkpt>
      <trkpt lat="34.482567" lon="-118.608086">
        <ele>342.595418</ele>
        <time>2024-06-15T08:20:15.000Z</time>
      </trkpt>
      <trkpt lat="34.483041" lon="-118.608066">
        <ele>343.217268</ele>
        <time>2024-06-15T08:20:20.000Z</time>
      </trkpt>
      <trkpt lat="34.483289" lon="-118.607964">
        <ele>343.582076</ele>
        <time>2024-06-15T08:20:23.000Z</time>
      </trkpt>
      <trkpt lat="34.483559" lon="-118.607724">
        <ele>344.020952</ele>
        <time>2024-06-15T08:20:27.000Z</time>
      </trkpt>
      <trkpt lat="34.483944" lon="-118.607017">
        <ele>344.95732</ele>
        <time>2024-06-15T08:20:35.000Z</time>
      </trkpt>
      <trkpt lat="34.484314" lon="-118.606549">
        <ele>345.433998</ele>
        <time>2024-06-15T08:20:41.000Z</time>
      </trkpt>
      <trkpt lat="34.485285" lon="-118.605516">
        <ele>346.568868</ele>
        <time>2024-06-15T08:20:55.000Z</time>
      </trkpt>
      <trkpt lat="34.485483" lon="-118.605335">
        <ele>346.436769</ele>
        <time>2024-06-15T08:20:58.000Z</time>
      </trkpt>
      <trkpt lat="34.485488" lon="-118.605344">
        <ele>346.435351</ele>
        <time>2024-06-15T08:20:58.000Z</time>
      </trkpt>
      <trkpt lat="34.485483" lon="-118.605344">
        <ele>346.433957</ele>
        <time>2024-06-15T08:20:58.000Z</time>
      </trkpt>
      <trkpt lat="34.485285" lon="-118.605516">
        <ele>346.301861</ele>
        <time>2024-06-15T08:21:01.000Z</time>
      </trkpt>
      <trkpt lat="34.484305" lon="-118.606551">
        <ele>345.586415</ele>
        <time>2024-06-15T08:21:15.000Z</time>
      </trkpt>
      <trkpt lat="34.48394" lon="-118.607003">
        <ele>344.93671</ele>
        <time>2024-06-15T08:21:21.000Z</time>
      </trkpt>
      <trkpt lat="34.483565" lon="-118.60772">
        <ele>344.074343</ele>
        <time>2024-06-15T08:21:29.000Z</time>
      </trkpt>
      <trkpt lat="34.483285" lon="-118.607965">
        <ele>343.670156</ele>
        <time>2024-06-15T08:21:33.000Z</time>
      </trkpt>
      <trkpt lat="34.48303" lon="-118.608069">
        <ele>343.389572</ele>
        <time>2024-06-15T08:21:36.000Z</time>
      </trkpt>
      <trkpt lat="34.482578" lon="-118.608097">
        <ele>343.385721</ele>
        <time>2024-06-15T08:21:41.000Z</time>
      </trkpt>
      <trkpt lat="34.481822" lon="-118.608076">
        <ele>343.379428</ele>
        <time>2024-06-15T08:21:49.000Z</time>
      </trkpt>
      <trkpt lat="34.478981" lon="-118.608091">
        <ele>345.029231</ele>
        <time>2024-06-15T08:22:21.000Z</time>
      </trkpt>
      <trkpt lat="34.478291" lon="-118.608124">
        <ele>345.272901</ele>
        <time>2024-06-15T08:22:29.000Z</time>
      </trkpt>
      <trkpt lat="34.478301" lon="-118.608117">
        <ele>345.272905</ele>
        <time>2024-06-15T08:22:29.000Z</time>
      </trkpt>
      <trkpt lat="34.477582" lon="-118.608203">
        <ele>345.475318</ele>
        <time>2024-06-15T08:22:37.000Z</time>
      </trkpt>
      <trkpt lat="34.477367" lon="-118.608266">
        <ele>345.441655</ele>
        <time>2024-06-15T08:22:39.000Z</time>
      </trkpt>
      <trkpt lat="34.477585" lon="-118.608196">
        <ele>345.408003</ele>
        <time>2024-06-15T08:22:42.000Z</time>
      </trkpt>
      <trkpt lat="34.478307" lon="-118.60812">
        <ele>345.292611</ele>
        <time>2024-06-15T08:22:50.000Z</time>
      </trkpt>
      <trkpt lat="34.478966" lon="-118.608087">
        <ele>345.080516</ele>
        <time>2024-06-15T08:22:57.000Z</time>
      </trkpt>
      <trkpt lat="34.481815" lon="-118.608088">
        <ele>342.266433</ele>
        <time>2024-06-15T08:23:29.000Z</time>
      </trkpt>
      <trkpt lat="34.481827" lon="-118.612237">
        <ele>339.081024</ele>
        <time>2024-06-15T08:24:07.000Z</time>
      </trkpt>
      <trkpt lat="34.481834" lon="-118.613872">
        <ele>339.291092</ele>
        <time>2024-06-15T08:24:22.000Z</time>
      </trkpt>
      <trkpt lat="34.481838" lon="-118.61406">
        <ele>339.457034</ele>
        <time>2024-06-15T08:24:24.000Z</time>
      </trkpt>
      <trkpt lat="34.481923" lon="-118.614227">
        <ele>339.626095</ele>
        <time>2024-06-15T08:24:26.000Z</time>
      </trkpt>
      <trkpt lat="34.482055" lon="-118.614298">
        <ele>339.777634</ele>
        <time>2024-06-15T08:24:28.000Z</time>
      </trkpt>
      <trkpt lat="34.482913" lon="-118.614515">
        <ele>340.713843</ele>
        <time>2024-06-15T08:24:38.000Z</time>
      </trkpt>
      <trkpt lat="34.48349" lon="-118.614714">
        <ele>341.494137</ele>
        <time>2024-06-15T08:24:45.000Z</time>
      </trkpt>
      <trkpt lat="34.484094" lon="-118.614961">
        <ele>342.316911</ele>
        <time>2024-06-15T08:24:52.000Z</time>
      </trkpt>
      <trkpt lat="34.485411" lon="-118.615574">
        <ele>343.513216</ele>
        <time>2024-06-15T08:25:08.000Z</time>
      </trkpt>
      <trkpt lat="34.485928" lon="-118.615761">
        <ele>343.846016</ele>
        <time>2024-06-15T08:25:14.000Z</time>
      </trkpt>
      <trkpt lat="34.486553" lon="-118.615937">
        <ele>344.316539</ele>
        <time>2024-06-15T08:25:21.000Z</time>
      </trkpt>
      <trkpt lat="34.487949" lon="-118.616363">
        <ele>345.540372</ele>
        <time>2024-06-15T08:25:37.000Z</time>
      </trkpt>
      <trkpt lat="34.488064" lon="-118.616415">
        <ele>345.708153</ele>
        <time>2024-06-15T08:25:38.000Z</time>
      </trkpt>
      <trkpt lat="34.488986" lon="-118.616699">
        <ele>347.281564</ele>
        <time>2024-06-15T08:25:49.000Z</time>
      </trkpt>
      <trkpt lat="34.489092" lon="-118.616717">
        <ele>347.437159</ele>
        <time>2024-06-15T08:25:50.000Z</time>
      </trkpt>
      <trkpt lat="34.489202" lon="-118.616771">
        <ele>347.631565</ele>
        <time>2024-06-15T08:25:51.000Z</time>
      </trkpt>
      <trkpt lat="34.489466" lon="-118.616848">
        <ele>348.072226</ele>
        <time>2024-06-15T08:25:54.000Z</time>
      </trkpt>
      <trkpt lat="34.489899" lon="-118.617067">
        <ele>348.701445</ele>
        <time>2024-06-15T08:25:59.000Z</time>
      </trkpt>
      <trkpt lat="34.490016" lon="-118.617137">
        <ele>348.821401</ele>
        <time>2024-06-15T08:26:00.000Z</time>
      </trkpt>
      <trkpt lat="34.490116" lon="-118.617199">
        <ele>348.906496</ele>
        <time>2024-06-15T08:26:01.000Z</time>
      </trkpt>
      <trkpt lat="34.490261" lon="-118.617341">
        <ele>349.078447</ele>
        <time>2024-06-15T08:26:03.000Z</time>
      </trkpt>
      <trkpt lat="34.490352" lon="-118.617398">
        <ele>349.161785</ele>
        <time>2024-06-15T08:26:04.000Z</time>
      </trkpt>
      <trkpt lat="34.4906" lon="-118.617613">
        <ele>349.433701</ele>
        <time>2024-06-15T08:26:07.000Z</time>
      </trkpt>
      <trkpt lat="34.490877" lon="-118.617356">
        <ele>349.733266</ele>
        <time>2024-06-15T08:26:11.000Z</time>
      </trkpt>
      <trkpt lat="34.49136" lon="-118.617041">
        <ele>350.14616</ele>
        <time>2024-06-15T08:26:17.000Z</time>
      </trkpt>
      <trkpt lat="34.491526" lon="-118.616959">
        <ele>350.214997</ele>
        <time>2024-06-15T08:26:19.000Z</time>
      </trkpt>
      <trkpt lat="34.491549" lon="-118.616939">
        <ele>350.227996</ele>
        <time>2024-06-15T08:26:19.000Z</time>
      </trkpt>
      <trkpt lat="34.49189" lon="-118.616831">
        <ele>350.359215</ele>
        <time>2024-06-15T08:26:23.000Z</time>
      </trkpt>
      <trkpt lat="34.492308" lon="-118.616775">
        <ele>350.517361</ele>
        <time>2024-06-15T08:26:28.000Z</time>
      </trkpt>
      <trkpt lat="34.492679" lon="-118.616766">
        <ele>350.658685</ele>
        <time>2024-06-15T08:26:32.000Z</time>
      </trkpt>
      <trkpt lat="34.492802" lon="-118.616747">
        <ele>350.707044</ele>
        <time>2024-06-15T08:26:33.000Z</time>
      </trkpt>
      <trkpt lat="34.493841" lon="-118.616678">
        <ele>351.433973</ele>
        <time>2024-06-15T08:26:45.000Z</time>
      </trkpt>
      <trkpt lat="34.494406" lon="-118.616628">
        <ele>351.868051</ele>
        <time>2024-06-15T08:26:51.000Z</time>
      </trkpt>
      <trkpt lat="34.494988" lon="-118.616573">
        <ele>352.342372</ele>
        <time>2024-06-15T08:26:57.000Z</time>
      </trkpt>
      <trkpt lat="34.495037" lon="-118.616581">
        <ele>352.382886</ele>
        <time>2024-06-15T08:26:58.000Z</time>
      </trkpt>
      <trkpt lat="34.495416" lon="-118.616555">
        <ele>352.74045</ele>
        <time>2024-06-15T08:27:02.000Z</time>
      </trkpt>
      <trkpt lat="34.495457" lon="-118.616534">
        <ele>352.784696</ele>
        <time>2024-06-15T08:27:02.000Z</time>
      </trkpt>
      <trkpt lat="34.495705" lon="-118.61652">
        <ele>353.011406</ele>
        <time>2024-06-15T08:27:05.000Z</time>
      </trkpt>
      <trkpt lat="34.495947" lon="-118.616506">
        <ele>353.228908</ele>
        <time>2024-06-15T08:27:08.000Z</time>
      </trkpt>
      <trkpt lat="34.496371" lon="-118.616461">
        <ele>353.625158</ele>
        <time>2024-06-15T08:27:13.000Z</time>
      </trkpt>
      <trkpt lat="34.496614" lon="-118.616451">
        <ele>353.837996</ele>
        <time>2024-06-15T08:27:16.000Z</time>
      </trkpt>
      <trkpt lat="34.496763" lon="-118.616433">
        <ele>353.99498</ele>
        <time>2024-06-15T08:27:18.000Z</time>
      </trkpt>
      <trkpt lat="34.496845" lon="-118.616422">
        <ele>354.07012</ele>
        <time>2024-06-15T08:27:19.000Z</time>
      </trkpt>
      <trkpt lat="34.497242" lon="-118.616398">
        <ele>354.454441</ele>
        <time>2024-06-15T08:27:23.000Z</time>
      </trkpt>
      <trkpt lat="34.497327" lon="-118.616402">
        <ele>354.539258</ele>
        <time>2024-06-15T08:27:24.000Z</time>
      </trkpt>
      <trkpt lat="34.497428" lon="-118.616393">
        <ele>354.645579</ele>
        <time>2024-06-15T08:27:25.000Z</time>
      </trkpt>
      <trkpt lat="34.497539" lon="-118.616299">
        <ele>354.762618</ele>
        <time>2024-06-15T08:27:27.000Z</time>
      </trkpt>
      <trkpt lat="34.49934" lon="-118.616128">
        <ele>356.115072</ele>
        <time>2024-06-15T08:27:47.000Z</time>
      </trkpt>
      <trkpt lat="34.500007" lon="-118.616079">
        <ele>356.480884</ele>
        <time>2024-06-15T08:27:54.000Z</time>
      </trkpt>
      <trkpt lat="34.50045" lon="-118.616084">
        <ele>356.662413635</ele>
        <time>2024-06-15T08:27:59.000Z</time>
      </trkpt>
      <trkpt lat="34.500431" lon="-118.615957">
        <ele>356.706001018</ele>
        <time>2024-06-15T08:28:00.000Z</time>
      </trkpt>
      <trkpt lat="34.500402" lon="-118.615382">
        <ele>356.900535304</ele>
        <time>2024-06-15T08:28:05.000Z</time>
      </trkpt>
      <trkpt lat="34.500411" lon="-118.615212">
        <ele>356.958060725</ele>
        <time>2024-06-15T08:28:07.000Z</time>
      </trkpt>
      <trkpt lat="34.500365" lon="-118.614793">
        <ele>357.100802296</ele>
        <time>2024-06-15T08:28:11.000Z</time>
      </trkpt>
      <trkpt lat="34.500239" lon="-118.614219">
        <ele>357.30139402</ele>
        <time>2024-06-15T08:28:16.000Z</time>
      </trkpt>
      <trkpt lat="34.500109" lon="-118.61396">
        <ele>357.403800287</ele>
        <time>2024-06-15T08:28:19.000Z</time>
      </trkpt>
      <trkpt lat="34.499971" lon="-118.61384">
        <ele>357.473367395</ele>
        <time>2024-06-15T08:28:21.000Z</time>
      </trkpt>
      <trkpt lat="34.499909" lon="-118.613815">
        <ele>357.500138247</ele>
        <time>2024-06-15T08:28:22.000Z</time>
      </trkpt>
      <trkpt lat="34.499762" lon="-118.613775">
        <ele>357.561868321</ele>
        <time>2024-06-15T08:28:24.000Z</time>
      </trkpt>
    </trkseg>
  </trk>
</gpx>

<!--
Performance optimized by W3 Total Cache. Learn more: https://www.boldgrid.com/w3-total-cache/?utm_source=w3tc&utm_medium=footer_comment&utm_campaign=free_plugin

Page Caching using Disk: Enhanced{w3tc_pagecache_reject_reason} 

Served from: www.aquabike.world @ 2026-05-10 18:49:34 by W3 Total Cache
-->